Portland, OR (97223)

9:57 PM PST on February 08, 2016 (GMT -0800)
Tigard | | Change Station
CLOSE
Current Station
Personal Weather Station
Location: Tigard, OR
Elevation: 177 ft
Nearby Weather Stations

Elev 177 ft 45.44 °N, 122.80 °W | Updated 1 minute ago

Clear
Clear
53.0 °F
Feels Like 53.0 °F
N
6.3
Wind Variable Wind from NNE

Today
High -- | Low -- °F
--% Chance of Precip.
Yesterday
High -- | Low -- °F
Precip. -- in
Pressure 30.25 in
Visibility 10.0 miles
Clouds Clear
Dew Point 38 °F
Humidity 56%
Rainfall 0.00 in
Snow Depth Not available.
7:23 AM 5:27 PM
New Moon, 1% visible
METAR KHIO 090553Z AUTO 31003KT 10SM CLR 07/06 A3025 RMK AO2 SLP244 T00670061 10172 20061 58007
Pressure 30.25 in
Visibility 10.0 miles
Clouds Clear
Dew Point 38 °F
Humidity 56%
Rainfall 0.00 in
Snow Depth Not available.
7:23 AM 5:27 PM
New Moon, 1% visible
METAR KHIO 090553Z AUTO 31003KT 10SM CLR 07/06 A3025 RMK AO2 SLP244 T00670061 10172 20061 58007

10-Day Weather Forecast

Almanac

Astronomy

Feb. 08, 2016 Rise Set
Actual Time
Civil Twilight
Nautical Twilight
Astronomical Twilight
Moon
Length of Visible Light
Length of Day
Tomorrow will be .
, % of the Moon is Illuminated

Today's Extremes

State Highs State Lows

Community

WunderPhotos

Upload Photos

1,891,566 photos uploaded!

WunderBlog® & News

Nearby

Air Quality

  Air Quality AQ Index Pollutant
Not available.

Snow Depth

Station Depth Elevation

Earthquake Activity

City Distance Mag. Time & Date
Minimum magnitude displayed is 2.5.

Coastal Water Temperatures

Place Temperature

Stations

Nearby Weather Stations

Station Location Temp. Windchill Dew Point Humidity Wind Precip. Elev Updated Type
                   

Watches & Warnings

There are currently no watches in effect.